createdAt,value
2022-12-01T00:01:38.787Z,98163.34
2022-12-01T00:04:07.307Z,98167.53
2022-12-01T00:06:35.817Z,98154.91
2022-12-01T00:09:23.016Z,98159.09
2022-12-01T00:11:51.468Z,98157.41
2022-12-01T00:14:19.951Z,98157.50
2022-12-01T00:16:48.481Z,98154.00
2022-12-01T00:19:17.740Z,98161.63
2022-12-01T00:21:47.280Z,98164.16
2022-12-01T00:24:17.045Z,98161.66
2022-12-01T00:26:45.503Z,98156.56
2022-12-01T00:29:14.024Z,98158.16
2022-12-01T00:31:42.609Z,98153.00
2022-12-01T00:34:22.581Z,98156.31
2022-12-01T00:36:51.418Z,98159.00
2022-12-01T00:39:21.408Z,98159.00
2022-12-01T00:41:49.850Z,98155.59
2022-12-01T00:44:18.306Z,98159.81
2022-12-01T00:46:46.762Z,98162.34
2022-12-01T00:49:15.690Z,98163.28
2022-12-01T00:51:44.107Z,98155.53
2022-12-01T00:54:12.551Z,98164.81
2022-12-01T00:56:42.286Z,98163.16
2022-12-01T00:59:11.493Z,98164.00
2022-12-01T01:01:40.354Z,98168.28
2022-12-01T01:04:09.095Z,98163.19
2022-12-01T01:06:38.296Z,98164.81
2022-12-01T01:09:06.760Z,98165.63
2022-12-01T01:11:35.205Z,98165.53
2022-12-01T01:14:05.398Z,98164.09
2022-12-01T01:16:34.595Z,98157.50
2022-12-01T01:19:03.126Z,98156.78
2022-12-01T01:21:31.653Z,98157.72
2022-12-01T01:24:00.168Z,98158.66
2022-12-01T01:26:31.555Z,98168.16
2022-12-01T01:29:02.035Z,98162.31
2022-12-01T01:31:32.270Z,98162.19
2022-12-01T01:34:00.666Z,98160.50
2022-12-01T01:36:29.240Z,98157.25
2022-12-01T01:38:57.682Z,98162.31
2022-12-01T01:41:26.731Z,98166.47
2022-12-01T01:43:57.339Z,98152.34
2022-12-01T01:46:27.753Z,98159.16
2022-12-01T01:49:00.234Z,98164.25
2022-12-01T01:51:32.851Z,98168.47
2022-12-01T01:54:05.165Z,98173.50
2022-12-01T01:56:35.551Z,98168.44
2022-12-01T01:59:04.820Z,98168.47
2022-12-01T02:01:33.414Z,98171.09
2022-12-01T02:04:04.331Z,98161.75
2022-12-01T02:06:32.916Z,98165.97
2022-12-01T02:09:01.444Z,98168.53
2022-12-01T02:11:57.919Z,98162.56
2022-12-01T02:14:45.879Z,98164.31
2022-12-01T02:17:28.084Z,98154.22
2022-12-01T02:20:32.445Z,98172.09
2022-12-01T02:23:22.975Z,98158.50
2022-12-01T02:26:04.567Z,98166.97
2022-12-01T02:28:57.321Z,98156.72
2022-12-01T02:31:35.574Z,98159.25
2022-12-01T02:34:11.155Z,98155.06
2022-12-01T02:36:47.777Z,98154.16
2022-12-01T02:39:23.067Z,98159.28
2022-12-01T02:41:55.386Z,98152.50
2022-12-01T02:44:28.283Z,98160.09
2022-12-01T02:47:01.656Z,98155.00
2022-12-01T02:49:35.850Z,98155.91
2022-12-01T02:52:07.222Z,98162.69
2022-12-01T02:54:36.967Z,98148.31
2022-12-01T02:57:05.416Z,98150.00
2022-12-01T02:59:33.999Z,98152.50
2022-12-01T03:02:15.529Z,98155.09
2022-12-01T03:04:56.210Z,98149.06
2022-12-01T03:07:43.668Z,98153.28
2022-12-01T03:10:21.087Z,98151.63
2022-12-01T03:13:00.457Z,98144.97
2022-12-01T03:15:36.818Z,98146.69
2022-12-01T03:18:13.286Z,98141.59
2022-12-01T03:20:48.074Z,98139.97
2022-12-01T03:23:20.931Z,98143.28
2022-12-01T03:25:52.834Z,98150.13
2022-12-01T03:28:29.751Z,98147.56
2022-12-01T03:31:03.210Z,98155.22
2022-12-01T03:33:37.139Z,98151.69
2022-12-01T03:36:15.024Z,98144.91
2022-12-01T03:38:47.702Z,98145.88
2022-12-01T03:41:20.687Z,98150.88
2022-12-01T03:43:59.443Z,98146.59
2022-12-01T03:46:38.003Z,98141.47
2022-12-01T03:49:08.870Z,98138.06
2022-12-01T03:51:43.916Z,98140.53
2022-12-01T03:54:17.688Z,98143.06
2022-12-01T03:56:49.887Z,98142.19
2022-12-01T03:59:21.932Z,98143.16
2022-12-01T04:01:50.875Z,98149.97
2022-12-01T04:04:20.953Z,98144.13
2022-12-01T04:06:51.297Z,98137.41
2022-12-01T04:09:20.023Z,98151.00
2022-12-01T04:12:05.942Z,98149.28
2022-12-01T04:14:34.429Z,98162.78
2022-12-01T04:17:02.879Z,98151.88
2022-12-01T04:19:32.980Z,98148.53
2022-12-01T04:22:01.539Z,98140.84
2022-12-01T04:24:30.019Z,98140.78
2022-12-01T04:26:58.490Z,98140.00
2022-12-01T04:29:26.955Z,98145.97
2022-12-01T04:31:55.440Z,98145.97
2022-12-01T04:34:24.032Z,98150.31
2022-12-01T04:36:53.961Z,98151.97
2022-12-01T04:39:22.460Z,98151.25
2022-12-01T04:41:51.085Z,98147.78
2022-12-01T04:44:19.571Z,98147.78
2022-12-01T04:46:48.188Z,98147.78
2022-12-01T04:49:16.656Z,98149.41
2022-12-01T04:51:45.127Z,98144.38
2022-12-01T04:54:15.020Z,98153.69
2022-12-01T04:56:43.551Z,98141.84
2022-12-01T04:59:12.388Z,98141.78
2022-12-01T05:01:41.141Z,98150.19
2022-12-01T05:04:12.879Z,98134.22
2022-12-01T05:06:41.978Z,98151.97
2022-12-01T05:09:17.581Z,98143.41
2022-12-01T05:11:46.551Z,98155.22
2022-12-01T05:14:15.000Z,98156.91
2022-12-01T05:16:43.749Z,98157.03
2022-12-01T05:19:29.826Z,98166.34
2022-12-01T05:21:58.283Z,98168.16
2022-12-01T05:24:28.215Z,98159.63
2022-12-01T05:26:56.755Z,98173.97
2022-12-01T05:29:25.284Z,98161.31
2022-12-01T05:31:53.845Z,98168.09
2022-12-01T05:34:22.424Z,98167.25
2022-12-01T05:36:50.931Z,98168.94
2022-12-01T05:39:19.415Z,98168.13
2022-12-01T05:41:49.280Z,98168.88
2022-12-01T05:44:17.958Z,98168.09
2022-12-01T05:46:46.410Z,98168.06
2022-12-01T05:49:14.990Z,98169.72
2022-12-01T05:51:43.839Z,98166.31
2022-12-01T05:54:12.312Z,98156.09
2022-12-01T05:56:40.831Z,98165.31
2022-12-01T05:59:10.630Z,98157.78
2022-12-01T06:01:39.302Z,98155.25
2022-12-01T06:04:08.722Z,98160.34
2022-12-01T06:06:37.222Z,98157.88
2022-12-01T06:09:05.739Z,98156.09
2022-12-01T06:11:34.168Z,98160.34
2022-12-01T06:14:02.636Z,98173.78
2022-12-01T06:16:32.515Z,98170.47
2022-12-01T06:19:01.042Z,98174.81
2022-12-01T06:21:29.523Z,98170.66
2022-12-01T06:23:58.103Z,98172.34
2022-12-01T06:26:26.600Z,98178.25
2022-12-01T06:28:55.084Z,98175.69
2022-12-01T06:31:23.627Z,98176.50
2022-12-01T06:33:53.505Z,98174.09
2022-12-01T06:36:21.978Z,98171.59
2022-12-01T06:38:50.420Z,98169.78
2022-12-01T06:41:18.885Z,98173.97
2022-12-01T06:43:47.340Z,98174.00
2022-12-01T06:46:16.648Z,98176.50
2022-12-01T06:48:48.439Z,98182.47
2022-12-01T06:51:18.475Z,98186.69
2022-12-01T06:53:47.422Z,98184.97
2022-12-01T06:56:17.748Z,98188.34
2022-12-01T06:58:46.926Z,98187.50
2022-12-01T07:01:16.047Z,98189.97
2022-12-01T07:03:47.961Z,98187.41
2022-12-01T07:06:18.418Z,98191.69
2022-12-01T07:08:46.915Z,98187.41
2022-12-01T07:11:16.728Z,98192.50
2022-12-01T07:13:46.272Z,98197.63
2022-12-01T07:16:14.754Z,98195.88
2022-12-01T07:18:44.541Z,98197.56
2022-12-01T07:21:14.789Z,98189.06
2022-12-01T07:23:44.536Z,98185.72
2022-12-01T07:26:14.875Z,98195.84
2022-12-01T07:28:44.178Z,98198.44
2022-12-01T07:31:14.926Z,98200.91
2022-12-01T07:33:43.977Z,98199.25
2022-12-01T07:36:13.982Z,98202.63
2022-12-01T07:38:44.339Z,98198.41
2022-12-01T07:41:14.974Z,98203.41
2022-12-01T07:43:43.926Z,98201.72
2022-12-01T07:46:20.352Z,98208.56
2022-12-01T07:48:50.625Z,98201.03
2022-12-01T07:51:19.567Z,98205.16
2022-12-01T07:53:51.179Z,98215.41
2022-12-01T07:56:20.459Z,98210.28
2022-12-01T07:58:49.012Z,98206.81
2022-12-01T08:01:19.382Z,98212.69
2022-12-01T08:03:49.645Z,98217.84
2022-12-01T08:06:19.464Z,98217.78
2022-12-01T08:08:49.964Z,98217.72
2022-12-01T08:11:20.479Z,98219.41
2022-12-01T08:13:49.662Z,98220.22
2022-12-01T08:16:21.647Z,98220.97
2022-12-01T08:18:50.938Z,98221.78
2022-12-01T08:21:21.956Z,98218.34
2022-12-01T08:23:54.506Z,98221.69
2022-12-01T08:26:24.044Z,98228.50
2022-12-01T08:28:52.820Z,98212.31
2022-12-01T08:31:27.626Z,98218.16
2022-12-01T08:33:56.843Z,98214.72
2022-12-01T08:36:26.610Z,98224.03
2022-12-01T08:38:56.948Z,98224.06
2022-12-01T08:41:26.117Z,98224.69
2022-12-01T08:43:59.171Z,98231.44
2022-12-01T08:46:29.473Z,98229.78
2022-12-01T08:48:58.370Z,98225.63
2022-12-01T08:51:27.312Z,98231.56
2022-12-01T08:53:58.683Z,98224.75
2022-12-01T08:56:29.781Z,98228.13
2022-12-01T08:58:58.547Z,98225.56
2022-12-01T09:01:27.188Z,98230.53
2022-12-01T09:04:06.716Z,98230.72
2022-12-01T09:06:39.393Z,98232.31
2022-12-01T09:09:10.519Z,98229.66
2022-12-01T09:11:39.455Z,98234.63
2022-12-01T09:14:08.374Z,98244.00
2022-12-01T09:16:37.554Z,98241.34
2022-12-01T09:19:06.120Z,98236.16
2022-12-01T09:21:37.355Z,98234.53
2022-12-01T09:24:07.382Z,98232.88
2022-12-01T09:26:37.319Z,98232.78
2022-12-01T09:29:07.783Z,98233.59
2022-12-01T09:31:36.629Z,98243.81
2022-12-01T09:34:07.511Z,98234.38
2022-12-01T09:36:37.155Z,98241.22
2022-12-01T09:39:06.456Z,98245.63
2022-12-01T09:41:38.973Z,98238.72
2022-12-01T09:44:16.583Z,98242.94
2022-12-01T09:46:50.030Z,98238.78
2022-12-01T09:49:23.942Z,98231.97
2022-12-01T09:51:54.574Z,98231.03
2022-12-01T09:54:23.138Z,98220.03
2022-12-01T09:56:55.430Z,98223.31
2022-12-01T09:59:27.630Z,98220.66
2022-12-01T10:02:00.266Z,98216.59
2022-12-01T10:04:35.960Z,98213.13
2022-12-01T10:07:07.552Z,98210.66
2022-12-01T10:09:42.928Z,98214.22
2022-12-01T10:12:17.593Z,98201.31
2022-12-01T10:14:47.734Z,98206.41
2022-12-01T10:17:25.284Z,98203.00
2022-12-01T10:19:58.064Z,98204.66
2022-12-01T10:22:50.524Z,98205.41
2022-12-01T10:25:22.933Z,98191.03
2022-12-01T10:28:07.727Z,98191.06
2022-12-01T10:30:41.094Z,98191.91
2022-12-01T10:33:19.432Z,98187.53
2022-12-01T10:35:47.939Z,98183.06
2022-12-01T10:38:27.295Z,98189.75
2022-12-01T10:40:59.724Z,98186.38
2022-12-01T10:43:36.919Z,98189.88
2022-12-01T10:46:16.579Z,98186.25
2022-12-01T10:48:54.792Z,98175.22
2022-12-01T10:51:23.666Z,98179.41
2022-12-01T10:53:59.364Z,98179.31
2022-12-01T10:56:28.033Z,98174.78
2022-12-01T10:59:01.046Z,98175.88
2022-12-01T11:01:35.454Z,98167.25
2022-12-01T11:04:07.500Z,98171.69
2022-12-01T11:06:36.931Z,98163.84
2022-12-01T11:09:07.828Z,98163.63
2022-12-01T11:11:38.765Z,98164.59
2022-12-01T11:14:19.655Z,98162.09
2022-12-01T11:16:50.458Z,98163.22
2022-12-01T11:19:27.199Z,98159.69
2022-12-01T11:21:58.218Z,98158.88
2022-12-01T11:24:30.821Z,98159.75
2022-12-01T11:27:01.023Z,98158.63
2022-12-01T11:29:33.175Z,98161.19
2022-12-01T11:32:02.714Z,98152.47
2022-12-01T11:34:34.500Z,98151.50
2022-12-01T11:37:07.359Z,98152.97
2022-12-01T11:39:38.656Z,98150.25
2022-12-01T11:42:22.430Z,98145.50
2022-12-01T11:44:54.902Z,98146.31
2022-12-01T11:47:25.907Z,98148.53
2022-12-01T11:49:57.536Z,98140.13
2022-12-01T11:52:30.165Z,98143.38
2022-12-01T11:55:06.924Z,98141.13
2022-12-01T11:57:44.268Z,98142.50
2022-12-01T12:00:17.245Z,98142.47
2022-12-01T12:02:59.401Z,98139.88
2022-12-01T12:07:14.583Z,98143.03
2022-12-01T12:09:56.099Z,98144.75
2022-12-01T12:12:36.159Z,98141.97
2022-12-01T12:15:17.212Z,98131.09
2022-12-01T12:17:57.492Z,98137.81
2022-12-01T12:20:36.704Z,98132.78
2022-12-01T12:23:27.068Z,98120.88
2022-12-01T12:26:04.973Z,98120.13
2022-12-01T12:28:51.778Z,98119.66
2022-12-01T12:31:30.476Z,98123.03
2022-12-01T12:34:22.926Z,98122.88
2022-12-01T12:37:02.771Z,98119.75
2022-12-01T12:39:52.124Z,98117.81
2022-12-01T12:42:28.301Z,98116.69
2022-12-01T12:45:03.282Z,98120.41
2022-12-01T12:47:50.145Z,98121.03
2022-12-01T12:50:28.348Z,98115.78
2022-12-01T12:53:01.916Z,98113.13
2022-12-01T12:55:40.796Z,98108.34
2022-12-01T12:58:15.573Z,98111.94
2022-12-01T13:00:47.525Z,98110.16
2022-12-01T13:03:21.880Z,98119.66
2022-12-01T13:05:55.220Z,98114.66
2022-12-01T13:08:30.493Z,98115.53
2022-12-01T13:11:07.672Z,98108.81
2022-12-01T13:13:41.418Z,98097.28
2022-12-01T13:16:15.103Z,98107.50
2022-12-01T13:18:48.713Z,98103.41
2022-12-01T13:21:20.164Z,98118.00
2022-12-01T13:23:51.794Z,98107.75
2022-12-01T13:26:23.161Z,98105.22
2022-12-01T13:28:54.635Z,98099.00
2022-12-01T13:31:23.710Z,98098.22
2022-12-01T13:33:59.768Z,98096.47
2022-12-01T13:39:21.547Z,98099.84
2022-12-01T13:42:04.060Z,98099.84
2022-12-01T13:44:34.751Z,98097.19
2022-12-01T13:47:06.273Z,98092.84
2022-12-01T13:49:42.451Z,98095.50
2022-12-01T13:52:28.516Z,98092.03
2022-12-01T13:55:25.509Z,98090.38
2022-12-01T13:58:23.720Z,98101.31
2022-12-01T14:00:52.681Z,98098.69
2022-12-01T14:03:39.771Z,98094.50
2022-12-01T14:06:22.310Z,98089.34
2022-12-01T14:08:51.192Z,98092.41
2022-12-01T14:11:23.582Z,98093.94
2022-12-01T14:13:58.353Z,98088.59
2022-12-01T14:16:46.120Z,98093.03
2022-12-01T14:19:29.275Z,98099.03
2022-12-01T14:21:58.498Z,98099.28
2022-12-01T14:24:32.935Z,98089.63
2022-12-01T14:27:01.516Z,98094.75
2022-12-01T14:29:34.209Z,98100.59
2022-12-01T14:32:26.855Z,98095.53
2022-12-01T14:35:04.847Z,98088.63
2022-12-01T14:37:42.380Z,98093.69
2022-12-01T14:40:32.372Z,98092.78
2022-12-01T14:43:19.693Z,98092.78
2022-12-01T14:45:58.202Z,98091.09
2022-12-01T14:48:34.153Z,98086.84
2022-12-01T14:51:13.188Z,98098.72
2022-12-01T14:53:45.507Z,98092.94
2022-12-01T14:56:17.803Z,98098.94
2022-12-01T14:58:54.544Z,98089.53
2022-12-01T15:01:26.891Z,98086.28
2022-12-01T15:03:59.077Z,98098.84
2022-12-01T15:06:29.964Z,98096.63
2022-12-01T15:12:07.392Z,98103.47
2022-12-01T15:14:38.334Z,98095.84
2022-12-01T15:17:09.095Z,98098.38
2022-12-01T15:19:39.488Z,98103.63
2022-12-01T15:22:16.386Z,98097.59
2022-12-01T15:24:45.841Z,98097.66
2022-12-01T15:27:27.202Z,98088.31
2022-12-01T15:29:58.238Z,98094.13
2022-12-01T15:32:28.224Z,98097.53
2022-12-01T15:35:01.637Z,98102.72
2022-12-01T15:37:40.435Z,98091.72
2022-12-01T15:43:04.895Z,98094.31
2022-12-01T15:45:44.445Z,98097.72
2022-12-01T15:48:18.831Z,98108.75
2022-12-01T15:50:59.689Z,98105.44
2022-12-01T15:53:32.865Z,98093.66
2022-12-01T15:56:04.244Z,98096.91
2022-12-01T15:58:36.494Z,98100.38
2022-12-01T16:01:09.707Z,98094.38
2022-12-01T16:03:53.499Z,98103.00
2022-12-01T16:06:27.903Z,98101.41
2022-12-01T16:08:59.246Z,98098.78
2022-12-01T16:11:28.577Z,98102.09
2022-12-01T16:14:01.027Z,98100.50
2022-12-01T16:16:42.726Z,98096.16
2022-12-01T16:19:31.563Z,98096.97
2022-12-01T16:22:05.336Z,98095.34
2022-12-01T16:24:36.722Z,98095.56
2022-12-01T16:27:07.564Z,98098.00
2022-12-01T16:29:51.915Z,98088.72
2022-12-01T16:32:23.772Z,98087.03
2022-12-01T16:34:54.403Z,98092.94
2022-12-01T16:37:23.727Z,98092.94
2022-12-01T16:39:52.238Z,98096.28
2022-12-01T16:42:22.316Z,98097.91
2022-12-01T16:44:51.678Z,98099.63
2022-12-01T16:47:23.041Z,98097.94
2022-12-01T16:49:52.319Z,98089.38
2022-12-01T16:55:36.112Z,98097.03
2022-12-01T16:58:04.786Z,98094.53
2022-12-01T17:00:33.941Z,98101.31
2022-12-01T17:03:03.310Z,98106.44
2022-12-01T17:05:31.919Z,98099.78
2022-12-01T17:08:02.047Z,98102.28
2022-12-01T17:10:30.430Z,98104.03
2022-12-01T17:12:58.919Z,98105.03
2022-12-01T17:15:27.557Z,98101.63
2022-12-01T17:17:56.017Z,98102.47
2022-12-01T17:20:24.661Z,98112.81
2022-12-01T17:22:53.441Z,98102.59
2022-12-01T17:25:23.309Z,98101.00
2022-12-01T17:27:52.858Z,98101.84
2022-12-01T17:30:21.541Z,98102.56
2022-12-01T17:32:50.307Z,98100.22
2022-12-01T17:35:19.287Z,98105.28
2022-12-01T17:37:47.823Z,98099.34
2022-12-01T17:40:16.372Z,98100.28
2022-12-01T17:42:50.492Z,98105.47
2022-12-01T17:45:19.923Z,98101.13
2022-12-01T17:47:48.577Z,98105.47
2022-12-01T17:50:17.847Z,98100.38
2022-12-01T17:52:46.786Z,98106.44
2022-12-01T17:55:15.447Z,98100.53
2022-12-01T17:57:44.352Z,98109.88
2022-12-01T18:00:16.054Z,98114.84
2022-12-01T18:02:44.644Z,98118.13
2022-12-01T18:05:13.185Z,98112.22
2022-12-01T18:07:41.792Z,98114.81
2022-12-01T18:10:11.101Z,98103.81
2022-12-01T18:12:39.652Z,98108.88
2022-12-01T18:15:09.173Z,98105.38
2022-12-01T18:17:39.113Z,98109.72
2022-12-01T18:20:09.435Z,98100.47
2022-12-01T18:22:37.915Z,98108.06
2022-12-01T18:25:07.048Z,98108.91
2022-12-01T18:27:35.512Z,98106.41
2022-12-01T18:30:05.321Z,98104.69
2022-12-01T18:32:33.873Z,98108.19
2022-12-01T18:35:03.727Z,98104.94
2022-12-01T18:37:32.196Z,98109.13
2022-12-01T18:40:00.864Z,98106.56
2022-12-01T18:42:29.354Z,98106.53
2022-12-01T18:44:57.848Z,98113.38
2022-12-01T18:47:26.414Z,98096.25
2022-12-01T18:49:55.279Z,98098.75
2022-12-01T18:52:25.333Z,98093.69
2022-12-01T18:54:55.125Z,98097.00
2022-12-01T18:57:23.822Z,98094.38
2022-12-01T18:59:52.353Z,98092.63
2022-12-01T19:02:20.988Z,98093.50
2022-12-01T19:04:50.862Z,98091.00
2022-12-01T19:07:19.550Z,98085.84
2022-12-01T19:09:49.656Z,98094.41
2022-12-01T19:12:18.727Z,98086.81
2022-12-01T19:14:47.424Z,98096.19
2022-12-01T19:17:16.096Z,98081.69
2022-12-01T19:19:44.614Z,98079.06
2022-12-01T19:22:13.083Z,98075.66
2022-12-01T19:24:44.865Z,98084.06
2022-12-01T19:27:18.648Z,98080.66
2022-12-01T19:29:47.508Z,98078.97
2022-12-01T19:32:16.361Z,98077.25
2022-12-01T19:34:44.836Z,98083.19
2022-12-01T19:37:13.319Z,98077.19
2022-12-01T19:39:41.846Z,98081.47
2022-12-01T19:42:12.103Z,98075.50
2022-12-01T19:44:42.006Z,98075.53
2022-12-01T19:47:10.641Z,98086.66
2022-12-01T19:49:39.049Z,98077.31
2022-12-01T19:52:07.517Z,98073.91
2022-12-01T19:54:37.612Z,98077.31
2022-12-01T19:57:06.309Z,98080.63
2022-12-01T19:59:35.058Z,98078.03
2022-12-01T20:02:04.901Z,98085.84
2022-12-01T20:04:33.728Z,98086.81
2022-12-01T20:07:02.207Z,98093.59
2022-12-01T20:09:30.719Z,98093.63
2022-12-01T20:11:59.258Z,98094.50
2022-12-01T20:14:27.809Z,98101.28
2022-12-01T20:16:56.573Z,98099.59
2022-12-01T20:19:26.487Z,98090.38
2022-12-01T20:21:55.067Z,98085.22
2022-12-01T20:24:25.074Z,98095.38
2022-12-01T20:26:57.498Z,98088.50
2022-12-01T20:29:28.687Z,98097.94
2022-12-01T20:31:59.587Z,98091.84
2022-12-01T20:34:32.064Z,98090.91
2022-12-01T20:37:01.366Z,98093.50
2022-12-01T20:39:31.406Z,98090.97
2022-12-01T20:42:00.002Z,98096.88
2022-12-01T20:44:29.266Z,98091.78
2022-12-01T20:46:57.812Z,98086.56
2022-12-01T20:49:26.272Z,98091.72
2022-12-01T20:51:56.112Z,98089.94
2022-12-01T20:54:29.208Z,98088.22
2022-12-01T20:56:58.589Z,98085.72
2022-12-01T20:59:27.846Z,98088.28
2022-12-01T21:01:56.832Z,98080.72
2022-12-01T21:04:25.572Z,98079.81
2022-12-01T21:06:57.286Z,98084.13
2022-12-01T21:09:26.555Z,98073.00
2022-12-01T21:12:15.149Z,98077.31
2022-12-01T21:14:46.244Z,98081.56
2022-12-01T21:17:25.311Z,98076.59
2022-12-01T21:20:01.373Z,98066.63
2022-12-01T21:22:31.698Z,98068.13
2022-12-01T21:25:07.261Z,98067.31
2022-12-01T21:27:35.719Z,98061.31
2022-12-01T21:30:08.708Z,98067.16
2022-12-01T21:32:42.558Z,98064.63
2022-12-01T21:35:17.393Z,98064.59
2022-12-01T21:37:47.795Z,98069.78
2022-12-01T21:40:21.576Z,98063.78
2022-12-01T21:42:50.566Z,98059.50
2022-12-01T21:45:23.192Z,98058.69
2022-12-01T21:47:51.939Z,98053.84
2022-12-01T21:50:23.612Z,98054.69
2022-12-01T21:52:53.481Z,98068.97
2022-12-01T21:55:34.909Z,98059.75
2022-12-01T21:58:03.953Z,98055.47
2022-12-01T22:00:34.256Z,98057.13
2022-12-01T22:03:21.670Z,98054.69
2022-12-01T22:06:21.114Z,98047.03
2022-12-01T22:08:46.212Z,98060.66
2022-12-01T22:11:19.535Z,98055.56
2022-12-01T22:13:50.868Z,98059.53
2022-12-01T22:16:21.836Z,98055.41
2022-12-01T22:18:53.162Z,98045.28
2022-12-01T22:21:42.184Z,98041.09
2022-12-01T22:24:26.064Z,98046.09
2022-12-01T22:27:03.708Z,98047.81
2022-12-01T22:29:34.763Z,98045.31
2022-12-01T22:32:38.400Z,98047.81
2022-12-01T22:35:29.580Z,98046.03
2022-12-01T22:38:15.077Z,98044.38
2022-12-01T22:40:52.624Z,98041.91
2022-12-01T22:43:46.240Z,98045.31
2022-12-01T22:46:30.392Z,98047.84
2022-12-01T22:49:00.651Z,98049.59
2022-12-01T22:51:30.550Z,98038.63
2022-12-01T22:54:19.801Z,98044.41
2022-12-01T22:56:51.599Z,98035.91
2022-12-01T22:59:21.731Z,98029.94
2022-12-01T23:01:50.839Z,98033.34
2022-12-01T23:04:26.529Z,98040.91
2022-12-01T23:07:04.669Z,98028.16
2022-12-01T23:09:36.908Z,98029.91
2022-12-01T23:12:27.175Z,98031.69
2022-12-01T23:15:00.271Z,98033.22
2022-12-01T23:17:30.604Z,98039.31
2022-12-01T23:20:31.276Z,98029.34
2022-12-01T23:23:02.440Z,98030.03
2022-12-01T23:25:31.716Z,98025.78
2022-12-01T23:28:05.349Z,98030.88
2022-12-01T23:30:34.444Z,98028.44
2022-12-01T23:33:28.519Z,98023.38
2022-12-01T23:35:59.173Z,98019.03
2022-12-01T23:38:32.460Z,98013.97
2022-12-01T23:41:02.660Z,98017.38
2022-12-01T23:43:35.699Z,98002.97
2022-12-01T23:46:07.408Z,98007.22
2022-12-01T23:48:42.276Z,97993.59
2022-12-01T23:51:18.903Z,97990.16
2022-12-01T23:53:47.638Z,97989.34
2022-12-01T23:56:19.926Z,97992.66
2022-12-01T23:58:50.559Z,97996.91
